createdAt,value
2023-03-27T00:00:27.536Z,9.30
2023-03-27T00:01:30.923Z,9.30
2023-03-27T00:02:33.036Z,9.30
2023-03-27T00:03:35.634Z,9.30
2023-03-27T00:04:41.221Z,9.30
2023-03-27T00:05:44.448Z,9.30
2023-03-27T00:06:48.916Z,9.30
2023-03-27T00:07:57.588Z,9.30
2023-03-27T00:08:59.743Z,9.30
2023-03-27T00:10:02.585Z,9.30
2023-03-27T00:11:06.182Z,9.30
2023-03-27T00:12:08.013Z,9.30
2023-03-27T00:13:11.400Z,9.30
2023-03-27T00:14:13.220Z,9.30
2023-03-27T00:15:18.747Z,9.20
2023-03-27T00:16:22.925Z,9.20
2023-03-27T00:17:24.833Z,9.10
2023-03-27T00:18:28.354Z,9.10
2023-03-27T00:19:30.355Z,9.10
2023-03-27T00:20:37.406Z,9.10
2023-03-27T00:21:40.495Z,9.10
2023-03-27T00:22:42.448Z,9.10
2023-03-27T00:23:44.482Z,9.10
2023-03-27T00:24:47.606Z,9.10
2023-03-27T00:25:50.094Z,9.20
2023-03-27T00:26:55.233Z,9.20
2023-03-27T00:27:58.601Z,9.20
2023-03-27T00:29:00.603Z,9.20
2023-03-27T00:30:06.424Z,9.20
2023-03-27T00:31:12.981Z,9.20
2023-03-27T00:32:17.180Z,9.20
2023-03-27T00:33:19.051Z,9.20
2023-03-27T00:34:20.871Z,9.20
2023-03-27T00:35:28.532Z,9.20
2023-03-27T00:36:30.752Z,9.20
2023-03-27T00:37:32.909Z,9.20
2023-03-27T00:38:34.575Z,9.20
2023-03-27T00:39:37.963Z,9.10
2023-03-27T00:40:41.891Z,9.10
2023-03-27T00:41:44.556Z,9.10
2023-03-27T00:42:51.932Z,9.10
2023-03-27T00:43:54.988Z,9.10
2023-03-27T00:44:57.031Z,9.10
2023-03-27T00:46:14.840Z,9.10
2023-03-27T00:47:18.020Z,9.10
2023-03-27T00:48:21.025Z,9.10
2023-03-27T00:49:25.576Z,9.10
2023-03-27T00:50:32.556Z,9.10
2023-03-27T00:51:36.582Z,9.10
2023-03-27T00:52:41.773Z,9.10
2023-03-27T00:53:45.780Z,9.10
2023-03-27T00:54:48.096Z,9.10
2023-03-27T00:55:52.812Z,9.10
2023-03-27T00:57:00.098Z,9.10
2023-03-27T00:58:06.960Z,9.10
2023-03-27T00:59:13.413Z,9.10
2023-03-27T01:00:17.027Z,9.10
2023-03-27T01:01:20.096Z,9.10
2023-03-27T01:02:22.583Z,9.20
2023-03-27T01:03:31.605Z,9.20
2023-03-27T01:04:36.021Z,9.20
2023-03-27T01:05:38.094Z,9.30
2023-03-27T01:06:42.181Z,9.20
2023-03-27T01:08:00.568Z,9.20
2023-03-27T01:09:04.774Z,9.20
2023-03-27T01:10:08.672Z,9.20
2023-03-27T01:11:35.499Z,9.20
2023-03-27T01:13:04.475Z,9.20
2023-03-27T01:14:15.842Z,9.20
2023-03-27T01:15:35.030Z,9.20
2023-03-27T01:17:10.336Z,9.20
2023-03-27T01:18:12.110Z,9.30
2023-03-27T01:19:38.984Z,9.30
2023-03-27T01:20:59.739Z,9.30
2023-03-27T01:22:04.695Z,9.30
2023-03-27T01:23:58.713Z,9.30
2023-03-27T01:25:03.354Z,9.30
2023-03-27T01:26:13.396Z,9.30
2023-03-27T01:28:06.290Z,9.30
2023-03-27T01:29:32.620Z,9.30
2023-03-27T01:30:38.475Z,9.30
2023-03-27T01:32:05.351Z,9.30
2023-03-27T01:33:16.197Z,9.20
2023-03-27T01:34:48.639Z,9.20
2023-03-27T01:36:48.936Z,9.20
2023-03-27T01:38:05.332Z,9.20
2023-03-27T01:39:31.838Z,9.20
2023-03-27T01:40:43.101Z,9.20
2023-03-27T01:42:06.914Z,9.10
2023-03-27T01:43:19.428Z,9.10
2023-03-27T01:44:48.304Z,9.10
2023-03-27T01:46:08.689Z,9.10
2023-03-27T01:47:24.641Z,9.10
2023-03-27T01:48:45.990Z,9.10
2023-03-27T01:49:55.862Z,9.10
2023-03-27T01:51:03.233Z,9.10
2023-03-27T01:52:10.199Z,9.10
2023-03-27T01:53:29.539Z,9.10
2023-03-27T01:54:43.652Z,9.10
2023-03-27T01:55:53.503Z,9.10
2023-03-27T01:57:22.537Z,9.10
2023-03-27T01:58:31.318Z,9.10
2023-03-27T01:59:39.445Z,9.10
2023-03-27T02:00:50.865Z,9.10
2023-03-27T02:02:15.008Z,9.10
2023-03-27T02:03:44.111Z,9.10
2023-03-27T02:04:53.886Z,9.10
2023-03-27T02:05:58.840Z,9.10
2023-03-27T02:07:04.965Z,9.00
2023-03-27T02:09:18.269Z,9.00
2023-03-27T02:10:27.787Z,9.00
2023-03-27T02:11:35.114Z,8.90
2023-03-27T02:12:41.197Z,8.90
2023-03-27T02:13:48.746Z,8.90
2023-03-27T02:14:57.347Z,8.80
2023-03-27T02:16:26.993Z,8.80
2023-03-27T02:17:34.147Z,8.90
2023-03-27T02:18:41.274Z,8.90
2023-03-27T02:19:53.322Z,8.90
2023-03-27T02:20:55.256Z,8.90
2023-03-27T02:21:57.400Z,8.90
2023-03-27T02:23:00.869Z,8.90
2023-03-27T02:24:03.681Z,8.90
2023-03-27T02:25:21.764Z,8.80
2023-03-27T02:26:23.900Z,8.80
2023-03-27T02:27:33.325Z,8.80
2023-03-27T02:28:48.643Z,8.80
2023-03-27T02:30:13.835Z,8.70
2023-03-27T02:31:35.144Z,8.70
2023-03-27T02:33:00.510Z,8.60
2023-03-27T02:34:12.027Z,8.50
2023-03-27T02:35:45.442Z,8.40
2023-03-27T02:37:16.415Z,8.30
2023-03-27T02:38:23.992Z,8.20
2023-03-27T02:39:38.352Z,8.10
2023-03-27T02:41:19.295Z,8.00
2023-03-27T02:42:24.327Z,7.90
2023-03-27T02:43:47.618Z,7.80
2023-03-27T02:44:54.010Z,7.70
2023-03-27T02:45:59.516Z,7.70
2023-03-27T02:47:09.296Z,7.70
2023-03-27T02:48:39.538Z,7.70
2023-03-27T02:49:46.273Z,7.60
2023-03-27T02:51:19.387Z,7.60
2023-03-27T02:52:28.187Z,7.60
2023-03-27T02:53:38.079Z,7.50
2023-03-27T02:54:45.749Z,7.50
2023-03-27T02:55:57.619Z,7.50
2023-03-27T02:57:05.423Z,7.40
2023-03-27T02:58:12.096Z,7.40
2023-03-27T02:59:22.838Z,7.40
2023-03-27T03:00:28.374Z,7.40
2023-03-27T03:01:32.754Z,7.40
2023-03-27T03:02:37.847Z,7.30
2023-03-27T03:03:58.712Z,7.30
2023-03-27T03:05:08.224Z,7.20
2023-03-27T03:06:10.940Z,7.20
2023-03-27T03:07:14.335Z,7.20
2023-03-27T03:08:16.916Z,7.20
2023-03-27T03:09:19.336Z,7.10
2023-03-27T03:10:21.664Z,7.10
2023-03-27T03:11:23.333Z,7.10
2023-03-27T03:12:25.020Z,7.10
2023-03-27T03:13:27.349Z,7.00
2023-03-27T03:14:34.465Z,7.10
2023-03-27T03:15:37.468Z,7.10
2023-03-27T03:16:41.424Z,7.10
2023-03-27T03:17:43.426Z,7.10
2023-03-27T03:18:45.281Z,7.00
2023-03-27T03:19:46.944Z,7.00
2023-03-27T03:20:49.319Z,7.00
2023-03-27T03:21:51.201Z,7.00
2023-03-27T03:22:53.443Z,7.00
2023-03-27T03:23:58.543Z,7.00
2023-03-27T03:25:01.130Z,7.00
2023-03-27T03:26:03.634Z,7.10
2023-03-27T03:27:05.981Z,7.00
2023-03-27T03:28:08.435Z,7.00
2023-03-27T03:29:11.891Z,7.10
2023-03-27T03:30:17.419Z,7.10
2023-03-27T03:31:19.540Z,7.10
2023-03-27T03:32:21.635Z,7.10
2023-03-27T03:33:23.288Z,7.10
2023-03-27T03:34:25.149Z,7.10
2023-03-27T03:35:27.028Z,7.20
2023-03-27T03:36:30.871Z,7.20
2023-03-27T03:37:38.964Z,7.20
2023-03-27T03:38:42.267Z,7.20
2023-03-27T03:39:44.265Z,7.20
2023-03-27T03:40:45.993Z,7.30
2023-03-27T03:41:48.521Z,7.30
2023-03-27T03:42:51.729Z,7.20
2023-03-27T03:43:53.536Z,7.30
2023-03-27T03:44:55.775Z,7.30
2023-03-27T03:45:58.048Z,7.30
2023-03-27T03:47:00.192Z,7.30
2023-03-27T03:48:02.283Z,7.30
2023-03-27T03:49:07.208Z,7.40
2023-03-27T03:50:10.120Z,7.30
2023-03-27T03:51:11.922Z,7.30
2023-03-27T03:52:13.700Z,7.20
2023-03-27T03:53:17.537Z,7.20
2023-03-27T03:54:19.572Z,7.20
2023-03-27T03:55:21.303Z,7.10
2023-03-27T03:56:23.722Z,7.10
2023-03-27T03:57:25.417Z,7.00
2023-03-27T03:58:34.835Z,7.00
2023-03-27T03:59:37.105Z,7.00
2023-03-27T04:00:39.797Z,7.00
2023-03-27T04:01:41.632Z,7.00
2023-03-27T04:02:44.221Z,7.00
2023-03-27T04:03:46.904Z,7.00
2023-03-27T04:04:48.624Z,7.00
2023-03-27T04:05:50.975Z,7.00
2023-03-27T04:06:58.492Z,7.00
2023-03-27T04:08:00.435Z,7.00
2023-03-27T04:09:02.329Z,7.00
2023-03-27T04:10:04.670Z,6.70
2023-03-27T04:11:06.479Z,6.90
2023-03-27T04:12:08.519Z,6.90
2023-03-27T04:13:10.834Z,6.70
2023-03-27T04:14:12.638Z,6.90
2023-03-27T04:15:15.664Z,6.90
2023-03-27T04:16:17.551Z,6.90
2023-03-27T04:17:19.411Z,6.90
2023-03-27T04:18:21.597Z,6.90
2023-03-27T04:19:23.873Z,6.90
2023-03-27T04:20:26.464Z,6.90
2023-03-27T04:21:28.137Z,7.00
2023-03-27T04:22:29.846Z,7.00
2023-03-27T04:23:31.551Z,6.90
2023-03-27T04:24:33.290Z,6.90
2023-03-27T04:25:35.199Z,6.90
2023-03-27T04:26:36.896Z,6.90
2023-03-27T04:27:39.199Z,6.90
2023-03-27T04:28:41.293Z,6.90
2023-03-27T04:29:47.439Z,6.90
2023-03-27T04:30:50.565Z,6.80
2023-03-27T04:31:52.659Z,6.80
2023-03-27T04:32:55.114Z,6.80
2023-03-27T04:33:57.237Z,6.80
2023-03-27T04:34:59.037Z,6.70
2023-03-27T04:36:06.441Z,6.80
2023-03-27T04:37:09.282Z,6.70
2023-03-27T04:38:12.571Z,6.70
2023-03-27T04:39:16.481Z,6.70
2023-03-27T04:40:18.538Z,6.80
2023-03-27T04:41:21.363Z,6.80
2023-03-27T04:42:23.531Z,6.70
2023-03-27T04:43:26.400Z,6.70
2023-03-27T04:44:28.128Z,6.70
2023-03-27T04:45:29.945Z,6.70
2023-03-27T04:46:31.621Z,6.70
2023-03-27T04:47:38.123Z,6.70
2023-03-27T04:48:40.079Z,6.70
2023-03-27T04:49:46.625Z,6.70
2023-03-27T04:50:49.712Z,6.70
2023-03-27T04:51:52.963Z,6.60
2023-03-27T04:52:58.854Z,6.60
2023-03-27T04:54:04.846Z,6.60
2023-03-27T04:55:08.011Z,6.60
2023-03-27T04:56:11.137Z,6.70
2023-03-27T04:57:15.949Z,6.60
2023-03-27T04:58:19.090Z,6.60
2023-03-27T04:59:22.673Z,6.50
2023-03-27T05:00:24.425Z,6.50
2023-03-27T05:01:27.727Z,6.50
2023-03-27T05:02:32.175Z,6.50
2023-03-27T05:03:35.056Z,6.50
2023-03-27T05:04:36.930Z,6.50
2023-03-27T05:05:38.773Z,6.40
2023-03-27T05:06:40.812Z,6.40
2023-03-27T05:07:48.874Z,6.40
2023-03-27T05:08:51.469Z,6.40
2023-03-27T05:09:53.317Z,6.40
2023-03-27T05:10:55.397Z,6.30
2023-03-27T05:11:57.400Z,6.40
2023-03-27T05:12:59.131Z,6.40
2023-03-27T05:15:18.146Z,6.30
2023-03-27T05:16:19.814Z,6.30
2023-03-27T05:17:21.597Z,6.30
2023-03-27T05:18:23.301Z,6.30
2023-03-27T05:19:26.681Z,6.30
2023-03-27T05:20:28.737Z,6.40
2023-03-27T05:21:30.899Z,6.40
2023-03-27T05:22:32.566Z,6.30
2023-03-27T05:23:34.289Z,6.30
2023-03-27T05:24:36.170Z,6.30
2023-03-27T05:25:39.413Z,6.10
2023-03-27T05:26:41.656Z,6.10
2023-03-27T05:27:51.322Z,6.10
2023-03-27T05:28:54.416Z,6.10
2023-03-27T05:29:56.016Z,6.10
2023-03-27T05:30:57.883Z,6.00
2023-03-27T05:32:01.436Z,6.00
2023-03-27T05:33:03.466Z,6.00
2023-03-27T05:34:06.017Z,6.00
2023-03-27T05:35:09.099Z,6.00
2023-03-27T05:36:11.332Z,6.00
2023-03-27T05:37:13.352Z,6.00
2023-03-27T05:38:15.413Z,6.00
2023-03-27T05:39:17.112Z,5.90
2023-03-27T05:40:22.214Z,5.90
2023-03-27T05:41:24.963Z,6.00
2023-03-27T05:42:27.465Z,5.90
2023-03-27T05:43:29.177Z,6.00
2023-03-27T05:44:30.983Z,6.00
2023-03-27T05:45:33.646Z,5.90
2023-03-27T05:46:35.937Z,5.90
2023-03-27T05:47:55.452Z,6.00
2023-03-27T05:48:59.331Z,6.00
2023-03-27T05:50:01.456Z,6.00
2023-03-27T05:51:03.316Z,6.00
2023-03-27T05:52:05.651Z,6.00
2023-03-27T05:53:11.055Z,6.10
2023-03-27T05:54:12.938Z,6.10
2023-03-27T05:55:15.227Z,6.10
2023-03-27T05:56:17.370Z,6.10
2023-03-27T05:57:19.609Z,6.10
2023-03-27T05:58:22.511Z,6.10
2023-03-27T05:59:24.606Z,6.10
2023-03-27T06:00:27.591Z,6.10
2023-03-27T06:01:29.366Z,6.10
2023-03-27T06:02:31.140Z,6.10
2023-03-27T06:03:35.563Z,6.10
2023-03-27T06:04:37.466Z,6.20
2023-03-27T06:05:40.279Z,6.20
2023-03-27T06:06:42.305Z,6.20
2023-03-27T06:07:44.172Z,6.20
2023-03-27T06:08:46.199Z,6.20
2023-03-27T06:09:47.884Z,6.20
2023-03-27T06:10:49.516Z,6.20
2023-03-27T06:11:51.261Z,6.20
2023-03-27T06:13:01.573Z,6.10
2023-03-27T06:14:04.051Z,6.10
2023-03-27T06:15:10.278Z,6.10
2023-03-27T06:16:11.990Z,6.10
2023-03-27T06:17:14.088Z,6.10
2023-03-27T06:18:16.310Z,6.10
2023-03-27T06:19:18.555Z,6.10
2023-03-27T06:20:21.827Z,6.10
2023-03-27T06:21:26.162Z,6.20
2023-03-27T06:22:28.009Z,6.20
2023-03-27T06:23:29.790Z,6.20
2023-03-27T06:24:31.510Z,6.10
2023-03-27T06:25:35.168Z,6.00
2023-03-27T06:26:37.085Z,6.00
2023-03-27T06:27:41.085Z,6.10
2023-03-27T06:28:43.726Z,6.10
2023-03-27T06:29:45.632Z,6.00
2023-03-27T06:30:47.813Z,6.10
2023-03-27T06:31:49.532Z,6.10
2023-03-27T06:32:54.235Z,6.10
2023-03-27T06:33:57.226Z,6.10
2023-03-27T06:34:59.509Z,6.10
2023-03-27T06:36:02.063Z,6.20
2023-03-27T06:37:05.371Z,6.20
2023-03-27T06:38:07.215Z,6.10
2023-03-27T06:39:08.895Z,6.10
2023-03-27T06:40:16.661Z,6.10
2023-03-27T06:41:18.377Z,6.10
2023-03-27T06:42:20.563Z,6.20
2023-03-27T06:43:22.618Z,6.10
2023-03-27T06:44:24.469Z,6.20
2023-03-27T06:45:28.628Z,6.20
2023-03-27T06:46:42.759Z,6.20
2023-03-27T06:48:16.955Z,6.30
2023-03-27T06:49:17.129Z,6.30
2023-03-27T06:50:20.222Z,6.30
2023-03-27T06:51:23.042Z,6.30
2023-03-27T06:52:24.803Z,6.30
2023-03-27T06:53:28.341Z,6.30
2023-03-27T06:54:30.960Z,6.30
2023-03-27T06:55:33.934Z,6.40
2023-03-27T06:56:35.845Z,6.40
2023-03-27T06:57:43.810Z,6.40
2023-03-27T06:58:46.045Z,6.50
2023-03-27T06:59:49.117Z,6.50
2023-03-27T07:00:51.269Z,6.50
2023-03-27T07:01:53.072Z,6.60
2023-03-27T07:02:56.979Z,6.60
2023-03-27T07:03:58.726Z,6.60
2023-03-27T07:05:04.699Z,6.60
2023-03-27T07:06:07.651Z,6.60
2023-03-27T07:07:09.594Z,6.60
2023-03-27T07:09:19.315Z,6.50
2023-03-27T07:10:22.413Z,6.50
2023-03-27T07:11:24.131Z,6.50
2023-03-27T07:12:26.207Z,6.40
2023-03-27T07:13:28.093Z,6.40
2023-03-27T07:14:31.479Z,6.40
2023-03-27T07:15:33.461Z,6.40
2023-03-27T07:16:35.203Z,6.40
2023-03-27T07:17:47.932Z,6.40
2023-03-27T07:18:50.756Z,6.40
2023-03-27T07:19:53.593Z,6.40
2023-03-27T07:20:55.571Z,6.40
2023-03-27T07:21:57.538Z,6.30
2023-03-27T07:23:00.454Z,6.30
2023-03-27T07:24:02.162Z,6.30
2023-03-27T07:25:04.782Z,6.30
2023-03-27T07:26:06.962Z,6.40
2023-03-27T07:27:08.700Z,6.40
2023-03-27T07:28:18.696Z,6.40
2023-03-27T07:29:20.489Z,6.50
2023-03-27T07:30:22.812Z,6.60
2023-03-27T07:31:41.993Z,6.70
2023-03-27T07:32:47.184Z,6.70
2023-03-27T07:33:51.395Z,6.70
2023-03-27T07:34:53.251Z,6.70
2023-03-27T07:35:55.124Z,6.80
2023-03-27T07:36:57.423Z,6.80
2023-03-27T07:37:59.418Z,6.90
2023-03-27T07:39:01.393Z,6.90
2023-03-27T07:40:07.785Z,6.90
2023-03-27T07:41:09.398Z,6.90
2023-03-27T07:42:11.026Z,6.90
2023-03-27T07:43:13.625Z,6.90
2023-03-27T07:44:15.370Z,6.90
2023-03-27T07:45:18.421Z,6.90
2023-03-27T07:46:20.344Z,6.90
2023-03-27T07:47:22.041Z,6.90
2023-03-27T07:48:23.859Z,6.90
2023-03-27T07:49:39.182Z,6.80
2023-03-27T07:50:43.126Z,6.80
2023-03-27T07:51:45.871Z,6.80
2023-03-27T07:52:49.175Z,6.70
2023-03-27T07:53:55.756Z,6.70
2023-03-27T07:54:57.434Z,6.70
2023-03-27T07:55:59.183Z,6.70
2023-03-27T07:57:01.282Z,6.80
2023-03-27T07:58:04.025Z,6.80
2023-03-27T07:59:06.802Z,6.80
2023-03-27T08:00:12.229Z,6.80
2023-03-27T08:01:14.915Z,6.80
2023-03-27T08:02:16.529Z,6.70
2023-03-27T08:03:19.031Z,6.70
2023-03-27T08:04:20.968Z,6.70
2023-03-27T08:05:22.885Z,6.70
2023-03-27T08:06:24.726Z,6.70
2023-03-27T08:07:26.464Z,6.80
2023-03-27T08:08:28.358Z,6.80
2023-03-27T08:09:30.210Z,6.80
2023-03-27T08:10:32.192Z,6.80
2023-03-27T08:11:34.358Z,6.80
2023-03-27T08:12:37.042Z,6.80
2023-03-27T08:13:39.856Z,6.70
2023-03-27T08:14:56.293Z,6.70
2023-03-27T08:16:27.610Z,6.80
2023-03-27T08:17:30.932Z,6.70
2023-03-27T08:18:32.766Z,6.80
2023-03-27T08:19:35.035Z,6.70
2023-03-27T08:20:37.397Z,6.70
2023-03-27T08:21:39.090Z,6.70
2023-03-27T08:22:41.247Z,6.60
2023-03-27T08:23:43.113Z,6.60
2023-03-27T08:24:44.826Z,6.50
2023-03-27T08:25:50.466Z,6.60
2023-03-27T08:26:52.070Z,6.60
2023-03-27T08:27:53.684Z,6.70
2023-03-27T08:28:56.853Z,6.60
2023-03-27T08:30:00.655Z,6.60
2023-03-27T08:31:10.269Z,6.60
2023-03-27T08:32:12.328Z,6.60
2023-03-27T08:33:14.294Z,6.50
2023-03-27T08:34:17.723Z,6.50
2023-03-27T08:35:19.430Z,6.60
2023-03-27T08:36:21.226Z,6.60
2023-03-27T08:37:23.734Z,6.70
2023-03-27T08:38:28.305Z,6.70
2023-03-27T08:39:33.346Z,6.80
2023-03-27T08:40:38.055Z,6.80
2023-03-27T08:41:51.266Z,6.90
2023-03-27T08:42:57.044Z,7.00
2023-03-27T08:44:04.204Z,7.00
2023-03-27T08:45:28.776Z,7.10
2023-03-27T08:46:39.775Z,7.20
2023-03-27T08:47:46.187Z,7.20
2023-03-27T08:49:12.082Z,7.30
2023-03-27T08:50:29.946Z,7.40
2023-03-27T08:51:41.694Z,7.50
2023-03-27T08:52:46.074Z,7.50
2023-03-27T08:53:57.299Z,7.60
2023-03-27T08:55:18.730Z,7.60
2023-03-27T08:56:21.145Z,7.60
2023-03-27T08:57:24.713Z,7.60
2023-03-27T08:58:27.300Z,7.60
2023-03-27T08:59:31.311Z,7.60
2023-03-27T09:00:39.493Z,7.70
2023-03-27T09:01:58.210Z,7.80
2023-03-27T09:03:13.925Z,7.70
2023-03-27T09:04:33.243Z,7.70
2023-03-27T09:05:57.799Z,7.70
2023-03-27T09:07:02.207Z,7.80
2023-03-27T09:08:15.850Z,7.80
2023-03-27T09:09:46.659Z,7.80
2023-03-27T09:10:50.269Z,7.80
2023-03-27T09:12:11.825Z,7.70
2023-03-27T09:13:18.869Z,7.80
2023-03-27T09:14:41.007Z,7.80
2023-03-27T09:15:57.009Z,7.80
2023-03-27T09:17:07.382Z,7.90
2023-03-27T09:18:19.041Z,7.90
2023-03-27T09:19:51.960Z,8.00
2023-03-27T09:21:04.079Z,8.00
2023-03-27T09:22:22.971Z,8.10
2023-03-27T09:23:30.973Z,8.10
2023-03-27T09:24:46.959Z,8.10
2023-03-27T09:25:55.872Z,8.10
2023-03-27T09:27:07.133Z,8.10
2023-03-27T09:28:34.060Z,8.10
2023-03-27T09:29:41.058Z,8.10
2023-03-27T09:30:42.718Z,8.10
2023-03-27T09:31:50.115Z,8.10
2023-03-27T09:32:58.059Z,8.10
2023-03-27T09:34:06.192Z,8.10
2023-03-27T09:35:13.401Z,8.10
2023-03-27T09:36:16.089Z,8.10
2023-03-27T09:37:18.001Z,8.10
2023-03-27T09:38:42.591Z,8.00
2023-03-27T09:39:51.389Z,8.00
2023-03-27T09:40:58.741Z,8.00
2023-03-27T09:42:19.254Z,8.00
2023-03-27T09:43:26.530Z,8.10
2023-03-27T09:44:36.254Z,8.20
2023-03-27T09:45:40.579Z,8.30
2023-03-27T09:46:49.640Z,8.30
2023-03-27T09:47:59.803Z,8.30
2023-03-27T09:49:14.228Z,8.40
2023-03-27T09:50:27.551Z,8.40
2023-03-27T09:51:53.756Z,8.40
2023-03-27T09:53:16.285Z,8.40
2023-03-27T09:54:20.957Z,8.40
2023-03-27T09:55:31.456Z,8.40
2023-03-27T09:56:45.872Z,8.40
2023-03-27T09:57:47.837Z,8.50
2023-03-27T09:58:50.757Z,8.50
2023-03-27T09:59:59.202Z,8.50
2023-03-27T10:01:17.593Z,8.60
2023-03-27T10:02:29.899Z,8.70
2023-03-27T10:03:39.077Z,8.60
2023-03-27T10:04:56.918Z,8.60
2023-03-27T10:06:14.415Z,8.60
2023-03-27T10:07:25.377Z,8.40
2023-03-27T10:08:41.832Z,8.40
2023-03-27T10:09:43.590Z,8.40
2023-03-27T10:10:46.093Z,8.40
2023-03-27T10:11:51.002Z,8.30
2023-03-27T10:12:58.416Z,8.40
2023-03-27T10:14:02.159Z,8.40
2023-03-27T10:15:05.876Z,8.50
2023-03-27T10:16:08.532Z,8.60
2023-03-27T10:17:40.341Z,8.70
2023-03-27T10:18:47.529Z,8.80
2023-03-27T10:19:52.613Z,8.80
2023-03-27T10:20:57.333Z,8.90
2023-03-27T10:22:21.596Z,9.00
2023-03-27T10:23:28.971Z,9.10
2023-03-27T10:24:36.506Z,9.10
2023-03-27T10:25:51.251Z,9.10
2023-03-27T10:26:53.270Z,9.20
2023-03-27T10:28:07.103Z,9.20
2023-03-27T10:29:31.665Z,9.20
2023-03-27T10:30:35.350Z,9.10
2023-03-27T10:31:40.386Z,9.00
2023-03-27T10:32:47.286Z,9.00
2023-03-27T10:33:48.938Z,8.90
2023-03-27T10:35:00.299Z,8.90
2023-03-27T10:36:03.184Z,8.90
2023-03-27T10:37:34.458Z,8.90
2023-03-27T10:38:39.363Z,8.90
2023-03-27T10:39:43.791Z,8.90
2023-03-27T10:40:49.861Z,8.90
2023-03-27T10:41:52.608Z,8.90
2023-03-27T10:43:01.543Z,8.90
2023-03-27T10:44:12.142Z,9.00
2023-03-27T10:45:23.913Z,9.00
2023-03-27T10:46:30.513Z,9.10
2023-03-27T10:47:34.192Z,9.10
2023-03-27T10:48:57.524Z,9.20
2023-03-27T10:50:26.716Z,9.30
2023-03-27T10:51:48.629Z,9.30
2023-03-27T10:53:06.079Z,9.40
2023-03-27T10:54:31.318Z,9.40
2023-03-27T10:55:48.015Z,9.30
2023-03-27T10:57:03.209Z,9.20
2023-03-27T10:58:13.414Z,9.10
2023-03-27T10:59:34.741Z,9.10
2023-03-27T11:00:50.782Z,9.20
2023-03-27T11:01:56.967Z,9.30
2023-03-27T11:03:27.585Z,9.30
2023-03-27T11:04:40.028Z,9.20
2023-03-27T11:05:48.182Z,9.30
2023-03-27T11:06:54.992Z,9.30
2023-03-27T11:07:57.460Z,9.30
2023-03-27T11:09:34.251Z,9.30
2023-03-27T11:10:44.636Z,9.30
2023-03-27T11:11:57.842Z,9.30
2023-03-27T11:13:06.365Z,9.40
2023-03-27T11:14:19.556Z,9.40
2023-03-27T11:15:42.230Z,9.40
2023-03-27T11:16:52.735Z,9.50
2023-03-27T11:18:12.324Z,9.50
2023-03-27T11:19:22.400Z,9.50
2023-03-27T11:20:52.698Z,9.40
2023-03-27T11:22:01.212Z,9.40
2023-03-27T11:23:09.898Z,9.40
2023-03-27T11:24:25.245Z,9.40
2023-03-27T11:25:41.025Z,9.30
2023-03-27T11:26:51.412Z,9.20
2023-03-27T11:28:12.662Z,9.20
2023-03-27T11:29:23.053Z,9.20
2023-03-27T11:30:32.601Z,9.20
2023-03-27T11:31:46.098Z,9.30
2023-03-27T11:33:16.893Z,9.30
2023-03-27T11:34:38.780Z,9.30
2023-03-27T11:35:59.909Z,9.40
2023-03-27T11:37:09.075Z,9.40
2023-03-27T11:38:25.958Z,9.50
2023-03-27T11:40:01.710Z,9.60
2023-03-27T11:41:03.453Z,9.60
2023-03-27T11:42:24.833Z,9.70
2023-03-27T11:43:26.455Z,9.60
2023-03-27T11:44:30.344Z,9.60
2023-03-27T11:46:03.599Z,9.50
2023-03-27T11:47:20.507Z,9.50
2023-03-27T11:48:40.985Z,9.50
2023-03-27T11:49:59.086Z,9.40
2023-03-27T11:51:10.064Z,9.40
2023-03-27T11:52:17.639Z,9.30
2023-03-27T11:53:44.328Z,9.30
2023-03-27T11:54:49.330Z,9.10
2023-03-27T11:56:18.467Z,9.00
2023-03-27T11:57:26.096Z,9.00
2023-03-27T11:58:40.889Z,9.00
2023-03-27T12:00:02.321Z,9.00
2023-03-27T12:01:18.214Z,9.00
2023-03-27T12:02:42.055Z,9.00
2023-03-27T12:04:03.180Z,9.10
2023-03-27T12:05:38.406Z,9.20
2023-03-27T12:07:04.897Z,9.30
2023-03-27T12:08:22.510Z,9.40
2023-03-27T12:09:47.305Z,9.30
2023-03-27T12:10:52.649Z,9.30
2023-03-27T12:12:13.129Z,9.40
2023-03-27T12:14:01.604Z,9.50
2023-03-27T12:15:32.953Z,9.40
2023-03-27T12:16:44.193Z,9.50
2023-03-27T12:18:13.144Z,9.40
2023-03-27T12:19:28.956Z,9.50
2023-03-27T12:20:43.584Z,9.60
2023-03-27T12:22:21.101Z,9.70
2023-03-27T12:23:49.714Z,9.90
2023-03-27T12:25:29.521Z,10.00
2023-03-27T12:26:49.516Z,10.10
2023-03-27T12:27:54.106Z,10.30
2023-03-27T12:29:23.858Z,10.30
2023-03-27T12:30:47.682Z,10.40
2023-03-27T12:32:29.704Z,10.40
2023-03-27T12:33:55.286Z,10.40
2023-03-27T12:35:07.463Z,10.50
2023-03-27T12:36:15.873Z,10.30
2023-03-27T12:37:22.367Z,10.30
2023-03-27T12:38:30.111Z,10.30
2023-03-27T12:39:44.482Z,10.40
2023-03-27T12:40:52.364Z,10.40
2023-03-27T12:41:54.376Z,10.50
2023-03-27T12:43:07.175Z,10.60
2023-03-27T12:44:13.688Z,10.60
2023-03-27T12:45:22.340Z,10.60
2023-03-27T12:46:24.115Z,10.60
2023-03-27T12:47:31.771Z,10.70
2023-03-27T12:48:45.684Z,10.80
2023-03-27T12:49:58.041Z,10.90
2023-03-27T12:51:00.266Z,11.00
2023-03-27T12:52:04.819Z,11.00
2023-03-27T12:53:06.685Z,10.90
2023-03-27T12:54:25.048Z,10.70
2023-03-27T12:55:35.264Z,10.80
2023-03-27T12:56:38.639Z,10.70
2023-03-27T12:57:44.887Z,10.80
2023-03-27T12:58:52.606Z,10.70
2023-03-27T12:59:59.605Z,10.70
2023-03-27T13:01:02.103Z,10.70
2023-03-27T13:02:03.930Z,10.80
2023-03-27T13:03:26.864Z,10.90
2023-03-27T13:04:47.811Z,10.80
2023-03-27T13:06:12.698Z,10.80
2023-03-27T13:07:26.452Z,10.50
2023-03-27T13:08:37.900Z,10.50
2023-03-27T13:09:58.502Z,10.40
2023-03-27T13:11:18.777Z,10.40
2023-03-27T13:13:03.725Z,10.30
2023-03-27T13:14:59.204Z,10.20
2023-03-27T13:16:35.302Z,10.10
2023-03-27T13:17:54.729Z,10.10
2023-03-27T13:19:05.679Z,9.80
2023-03-27T13:20:39.745Z,9.80
2023-03-27T13:22:16.058Z,9.80
2023-03-27T13:23:50.475Z,9.90
2023-03-27T13:25:18.348Z,9.90
2023-03-27T13:26:50.050Z,9.90
2023-03-27T13:28:24.031Z,9.70
2023-03-27T13:29:32.830Z,9.60
2023-03-27T13:33:16.842Z,9.50
2023-03-27T13:34:27.416Z,9.40
2023-03-27T13:35:41.259Z,9.40
2023-03-27T13:39:05.852Z,9.40
2023-03-27T13:40:28.604Z,9.30
2023-03-27T13:41:45.116Z,9.40
2023-03-27T13:42:52.490Z,9.40
2023-03-27T13:43:55.258Z,9.30
2023-03-27T13:45:21.459Z,9.40
2023-03-27T13:46:29.382Z,9.40
2023-03-27T13:47:34.111Z,9.30
2023-03-27T13:49:00.484Z,9.30
2023-03-27T13:50:39.203Z,9.30
2023-03-27T13:52:06.059Z,9.30
2023-03-27T13:53:45.793Z,9.30
2023-03-27T13:55:10.644Z,9.30
2023-03-27T13:56:39.251Z,9.20
2023-03-27T13:58:07.695Z,9.20
2023-03-27T13:59:38.533Z,9.10
2023-03-27T14:01:07.686Z,9.10
2023-03-27T14:02:16.523Z,9.00
2023-03-27T14:03:56.812Z,9.00
2023-03-27T14:05:49.102Z,8.90
2023-03-27T14:07:18.625Z,8.80
2023-03-27T14:08:44.104Z,8.80
2023-03-27T14:09:56.617Z,9.10
2023-03-27T14:11:37.325Z,9.30
2023-03-27T14:12:57.856Z,9.40
2023-03-27T14:14:33.998Z,9.60
2023-03-27T14:15:41.140Z,9.60
2023-03-27T14:17:01.032Z,9.80
2023-03-27T14:18:32.728Z,10.00
2023-03-27T14:20:08.226Z,10.30
2023-03-27T14:21:31.903Z,10.70
2023-03-27T14:22:47.748Z,11.00
2023-03-27T14:23:55.802Z,11.20
2023-03-27T14:25:10.643Z,11.30
2023-03-27T14:26:20.234Z,11.40
2023-03-27T14:27:23.582Z,11.40
2023-03-27T14:28:45.588Z,11.40
2023-03-27T14:29:51.858Z,11.40
2023-03-27T14:30:54.997Z,11.40
2023-03-27T14:32:22.785Z,11.20
2023-03-27T14:33:25.361Z,10.90
2023-03-27T14:34:31.546Z,10.90
2023-03-27T14:35:43.962Z,10.80
2023-03-27T14:36:46.035Z,10.70
2023-03-27T14:37:56.074Z,10.70
2023-03-27T14:39:06.617Z,10.90
2023-03-27T14:40:30.963Z,10.90
2023-03-27T14:41:32.617Z,10.90
2023-03-27T14:42:35.478Z,10.80
2023-03-27T14:43:37.417Z,10.60
2023-03-27T14:44:39.388Z,10.40
2023-03-27T14:45:41.637Z,10.30
2023-03-27T14:46:48.303Z,10.20
2023-03-27T14:47:55.797Z,10.10
2023-03-27T14:49:00.020Z,10.10
2023-03-27T14:50:02.585Z,10.00
2023-03-27T14:51:36.970Z,9.90
2023-03-27T14:52:38.694Z,9.80
2023-03-27T14:53:44.193Z,9.80
2023-03-27T14:54:55.270Z,9.70
2023-03-27T14:56:04.456Z,9.70
2023-03-27T14:57:09.232Z,9.70
2023-03-27T14:58:18.386Z,9.70
2023-03-27T14:59:27.436Z,9.70
2023-03-27T15:00:31.998Z,9.80
2023-03-27T15:01:35.213Z,9.80
2023-03-27T15:02:39.314Z,9.70
2023-03-27T15:03:44.329Z,9.70
2023-03-27T15:04:46.321Z,9.70
2023-03-27T15:06:05.780Z,9.70
2023-03-27T15:07:15.467Z,9.80
2023-03-27T15:08:19.669Z,9.80
2023-03-27T15:09:23.563Z,9.90
2023-03-27T15:10:27.981Z,9.80
2023-03-27T15:11:38.856Z,9.70
2023-03-27T15:12:47.568Z,9.60
2023-03-27T15:14:01.559Z,9.50
2023-03-27T15:15:06.789Z,9.40
2023-03-27T15:16:14.023Z,9.30
2023-03-27T15:17:19.336Z,9.20
2023-03-27T15:18:32.927Z,9.10
2023-03-27T15:19:45.616Z,9.00
2023-03-27T15:20:50.465Z,8.90
2023-03-27T15:22:01.305Z,8.90
2023-03-27T15:23:28.703Z,8.80
2023-03-27T15:24:49.504Z,8.70
2023-03-27T15:25:56.446Z,8.70
2023-03-27T15:27:01.253Z,8.60
2023-03-27T15:28:10.815Z,8.60
2023-03-27T15:29:18.664Z,8.60